createdAt,value
2023-05-02T00:00:24.470Z,12.16
2023-05-02T00:12:24.486Z,12.15
2023-05-02T00:24:24.431Z,12.13
2023-05-02T00:36:24.549Z,12.11
2023-05-02T00:48:24.422Z,12.11
2023-05-02T01:00:25.241Z,12.10
2023-05-02T01:12:24.531Z,12.09
2023-05-02T01:24:24.513Z,12.07
2023-05-02T01:36:24.487Z,12.07
2023-05-02T01:48:24.452Z,12.04
2023-05-02T02:00:24.418Z,12.04
2023-05-02T02:12:24.528Z,12.03
2023-05-02T02:24:24.505Z,12.02
2023-05-02T02:36:24.532Z,12.01
2023-05-02T02:48:24.532Z,11.99
2023-05-02T03:00:24.554Z,11.97
2023-05-02T03:12:24.491Z,11.98
2023-05-02T03:24:24.544Z,11.96
2023-05-02T03:36:24.427Z,11.94
2023-05-02T03:48:24.529Z,11.94
2023-05-02T04:00:24.530Z,11.93
2023-05-02T04:12:24.420Z,11.92
2023-05-02T04:24:24.524Z,11.91
2023-05-02T04:36:24.473Z,11.90
2023-05-02T04:48:24.511Z,11.89
2023-05-02T05:00:25.017Z,11.88
2023-05-02T05:12:24.466Z,11.88
2023-05-02T05:24:24.476Z,11.86
2023-05-02T05:36:24.525Z,11.86
2023-05-02T05:48:24.500Z,11.85
2023-05-02T06:00:24.526Z,11.84
2023-05-02T06:12:24.436Z,11.84
2023-05-02T06:24:24.534Z,11.83
2023-05-02T06:36:24.519Z,11.82
2023-05-02T06:48:24.462Z,11.82
2023-05-02T07:00:24.480Z,11.82
2023-05-02T07:12:24.521Z,11.82
2023-05-02T07:24:24.551Z,11.83
2023-05-02T07:36:24.534Z,11.83
2023-05-02T07:48:26.190Z,11.98
2023-05-02T08:00:24.516Z,12.03
2023-05-02T08:12:24.524Z,12.05
2023-05-02T08:24:24.416Z,12.29
2023-05-02T08:36:24.440Z,12.37
2023-05-02T08:48:24.523Z,12.41
2023-05-02T09:00:24.429Z,12.60
2023-05-02T09:12:24.523Z,12.62
2023-05-02T09:24:24.530Z,12.57
2023-05-02T09:36:24.509Z,12.59
2023-05-02T09:48:24.532Z,12.64
2023-05-02T10:00:24.544Z,12.68
2023-05-02T10:12:24.517Z,12.67
2023-05-02T10:24:24.546Z,12.69
2023-05-02T10:36:24.444Z,12.69
2023-05-02T10:48:24.485Z,12.68
2023-05-02T11:00:24.439Z,12.69
2023-05-02T11:12:24.430Z,12.68
2023-05-02T11:24:24.423Z,12.68
2023-05-02T11:36:24.511Z,12.68
2023-05-02T11:48:24.426Z,12.69
2023-05-02T12:00:24.509Z,12.68
2023-05-02T12:12:24.428Z,12.68
2023-05-02T12:24:24.434Z,12.68
2023-05-02T12:36:24.419Z,12.68
2023-05-02T12:48:24.550Z,12.67
2023-05-02T13:00:24.460Z,12.68
2023-05-02T13:12:24.429Z,12.68
2023-05-02T13:24:24.543Z,12.68
2023-05-02T13:36:24.538Z,12.68
2023-05-02T13:48:24.424Z,12.68
2023-05-02T14:00:24.526Z,12.68
2023-05-02T14:12:24.421Z,12.67
2023-05-02T14:24:24.447Z,12.69
2023-05-02T14:36:24.451Z,12.68
2023-05-02T14:48:24.533Z,12.68
2023-05-02T15:00:24.511Z,12.68
2023-05-02T15:12:24.539Z,12.67
2023-05-02T15:24:24.524Z,12.68
2023-05-02T15:36:24.429Z,12.68
2023-05-02T15:48:24.548Z,12.67
2023-05-02T16:00:24.478Z,12.67
2023-05-02T16:12:24.417Z,12.67
2023-05-02T16:24:24.551Z,12.65
2023-05-02T16:36:24.432Z,12.64
2023-05-02T16:48:24.434Z,12.62
2023-05-02T17:00:24.536Z,12.60
2023-05-02T17:12:24.532Z,12.58
2023-05-02T17:24:24.545Z,12.59
2023-05-02T17:36:24.490Z,12.58
2023-05-02T17:48:24.669Z,12.58
2023-05-02T18:00:24.435Z,12.56
2023-05-02T18:12:24.416Z,12.55
2023-05-02T18:24:24.474Z,12.53
2023-05-02T18:36:24.452Z,12.53
2023-05-02T18:48:24.551Z,12.50
2023-05-02T19:00:24.538Z,12.49
2023-05-02T19:12:24.515Z,12.48
2023-05-02T19:24:24.551Z,12.46
2023-05-02T19:36:24.526Z,12.45
2023-05-02T19:48:24.603Z,12.43
2023-05-02T20:00:24.516Z,12.43
2023-05-02T20:12:24.531Z,12.40
2023-05-02T20:24:24.420Z,12.39
2023-05-02T20:36:24.529Z,12.39
2023-05-02T20:48:24.463Z,12.35
2023-05-02T21:00:24.551Z,12.36
2023-05-02T21:12:24.549Z,12.34
2023-05-02T21:24:24.434Z,12.32
2023-05-02T21:36:24.536Z,12.31
2023-05-02T21:48:24.536Z,12.29
2023-05-02T22:00:24.520Z,12.29
2023-05-02T22:12:24.519Z,12.27
2023-05-02T22:24:24.549Z,12.25
2023-05-02T22:36:24.423Z,12.25
2023-05-02T22:48:24.423Z,12.24
2023-05-02T23:00:24.440Z,12.23
2023-05-02T23:12:24.539Z,12.21
2023-05-02T23:24:24.505Z,12.21
2023-05-02T23:36:24.533Z,12.19
2023-05-02T23:48:24.438Z,12.18
